Atyray, Kazakhstan

6:50 PM AQTT on August 20, 2014 (GMT +0500)
Atyrau | Change Station
CLOSE
Current Station
Airport
Location: Atyrau,
Elevation: -72 ft
Nearby Weather Stations

Elev -72 ft 47.12 °N, 51.83 °E | Updated 20 minutes ago

Clear
Clear
97 °F
Feels Like 97 °F
N
11
Wind Variable Wind from South

Today
High -- | Low -- °F
--% Chance of Precip.
Yesterday
High -- | Low -- °F
Precip. -- in
6:35 AM 8:35 PM
Waning Crescent, 21% visible
Pressure 29.89 in
Visibility -9999.0 miles
Clouds
Dew Point 52 °F
Humidity 22%
Rainfall 0.00 in
Snow Depth Not available.
UV Not available.
Pollen Not available.
Air Quality Not available.
Flu Activity Not available.
METAR UATG 201330Z 18005MPS CAVOK 36/11 Q1012 R14/CLRD70 NOSIG RMK QFE761/1015

More Conditions Fewer Conditions

Pressure 29.89 in
Visibility -9999.0 miles
Clouds
Dew Point 52 °F
Humidity 22%
Rainfall 0.00 in
Snow Depth Not available.
UV Not available.
Pollen Not available.
Air Quality Not available.
Flu Activity Not available.
METAR UATG 201330Z 18005MPS CAVOK 36/11 Q1012 R14/CLRD70 NOSIG RMK QFE761/1015

More Conditions Fewer Conditions

10-Day Weather Forecast

Almanac

Astronomy

Aug. 20, 2014 Rise Set
Actual Time 6:35 AM AQTT 8:35 PM AQTT
Civil Twilight 6:02 AM AQTT 9:08 PM AQTT
Nautical Twilight 5:21 AM AQTT 9:48 PM AQTT
Astronomical Twilight 4:36 AM AQTT 10:33 PM AQTT
Moon 1:48 AM AQTT 5:08 PM AQTT
Length of Visible Light 15h 05m
Length of Day
13h 59m
Tomorrow will be 3m 7s shorter.
Waning Crescent, 21% of the Moon is Illuminated
Today
Waning Crescent
Aug 25
New
Sep 2
First Quarter
Sep 8
Full
Sep 15
Last Quarter

Yesterday's Extremes

Country Highs Country Lows

Community

WunderPhotos

Upload Photos

1,745,630 photos uploaded!

WunderBlogs® & News

By Dr. Jeff Masters
Director of Meteorology, Weather Underground
By Kari Strenfel
Meteorologist, Weather Underground
By Christopher C. Burt
Weather Historian, Weather Underground
August 20, 2014
August 20, 2014
August 20, 2014

Nearby

Snow Depth

Not available.

Earthquake Activity

City Distance Mag. Time & Date
No recent earthquake activity has been reported nearby.
Minimum magnitude displayed is 2.5.

Coastal Water Temperatures

Place Temperature
No Stations Reporting

Nearby Weather Stations